createdAt,value
2019-02-15T07:04:12.072Z,100.00
2019-02-15T07:06:42.380Z,100.00
2019-02-15T07:09:12.747Z,100.00
2019-02-15T07:11:43.092Z,100.00
2019-02-15T07:14:14.068Z,100.00
2019-02-15T07:16:44.242Z,100.00
2019-02-15T07:19:14.975Z,100.00
2019-02-15T07:21:47.046Z,100.00
2019-02-15T07:24:18.117Z,100.00
2019-02-15T07:26:49.223Z,100.00
2019-02-15T07:29:19.438Z,100.00
2019-02-15T07:31:49.731Z,100.00
2019-02-15T07:34:19.941Z,100.00
2019-02-15T07:36:50.164Z,100.00
2019-02-15T07:39:20.478Z,100.00
2019-02-15T07:41:51.705Z,100.00
2019-02-15T07:44:22.095Z,100.00
2019-02-15T07:46:52.463Z,100.00
2019-02-15T07:49:26.910Z,100.00
2019-02-15T07:51:55.376Z,100.00
2019-02-15T07:54:25.535Z,100.00
2019-02-15T07:56:55.752Z,100.00
2019-02-15T07:59:25.995Z,100.00
2019-02-15T08:02:01.908Z,100.00
2019-02-15T08:04:28.371Z,100.00
2019-02-15T08:06:58.712Z,100.00
2019-02-15T08:09:28.955Z,100.00
2019-02-15T08:11:59.937Z,100.00
2019-02-15T08:14:30.171Z,100.00
2019-02-15T08:17:00.442Z,100.00
2019-02-15T08:19:31.434Z,100.00
2019-02-15T08:22:02.417Z,100.00
2019-02-15T08:24:32.604Z,100.00
2019-02-15T08:27:03.395Z,100.00
2019-02-15T08:29:37.211Z,100.00
2019-02-15T08:32:08.159Z,100.00
2019-02-15T08:34:39.271Z,100.00
2019-02-15T08:37:09.500Z,100.00
2019-02-15T08:39:40.495Z,100.00
2019-02-15T08:42:10.666Z,100.00
2019-02-15T08:44:40.895Z,100.00
2019-02-15T08:47:13.384Z,100.00
2019-02-15T08:49:43.549Z,100.00
2019-02-15T08:52:13.686Z,100.00
2019-02-15T08:54:45.426Z,100.00
2019-02-15T08:57:15.958Z,100.00
2019-02-15T08:59:46.103Z,100.00
2019-02-15T09:02:19.670Z,100.00
2019-02-15T09:04:49.883Z,100.00
2019-02-15T09:07:20.823Z,100.00
2019-02-15T09:09:51.092Z,100.00
2019-02-15T09:12:22.111Z,100.00
2019-02-15T09:14:52.290Z,100.00
2019-02-15T09:17:22.535Z,100.00
2019-02-15T09:19:53.490Z,100.00
2019-02-15T09:22:23.678Z,100.00
2019-02-15T09:24:54.628Z,100.00
2019-02-15T09:28:02.180Z,100.00
2019-02-15T09:30:32.308Z,100.00
2019-02-15T09:33:02.538Z,100.00
2019-02-15T09:35:32.702Z,100.00
2019-02-15T09:38:04.398Z,100.00
2019-02-15T09:40:35.397Z,100.00
2019-02-15T09:43:06.378Z,100.00
2019-02-15T09:45:36.521Z,100.00
2019-02-15T09:48:07.553Z,100.00
2019-02-15T09:50:37.751Z,100.00
2019-02-15T09:53:07.938Z,100.00
2019-02-15T09:55:38.115Z,100.00
2019-02-15T09:58:09.847Z,100.00
2019-02-15T10:00:40.113Z,100.00
2019-02-15T10:03:10.269Z,100.00
2019-02-15T10:05:40.428Z,100.00
2019-02-15T10:08:10.628Z,100.00
2019-02-15T10:10:41.876Z,100.00
2019-02-15T10:13:12.108Z,100.00
2019-02-15T10:15:43.851Z,100.00
2019-02-15T10:18:14.038Z,100.00
2019-02-15T10:20:44.398Z,99.97
2019-02-15T10:23:16.511Z,98.97
2019-02-15T10:25:46.704Z,97.57
2019-02-15T10:28:16.940Z,96.33
2019-02-15T10:30:47.127Z,95.48
2019-02-15T10:33:18.113Z,94.86
2019-02-15T10:35:48.289Z,94.28
2019-02-15T10:38:19.334Z,92.92
2019-02-15T10:40:49.529Z,92.59
2019-02-15T10:43:19.718Z,91.76
2019-02-15T10:45:50.709Z,91.75
2019-02-15T10:48:22.333Z,91.92
2019-02-15T10:50:52.555Z,91.09
2019-02-15T10:53:23.160Z,91.62
2019-02-15T10:55:54.076Z,91.58
2019-02-15T10:58:26.339Z,91.06
2019-02-15T11:00:56.333Z,90.68
2019-02-15T11:03:26.624Z,90.54
2019-02-15T11:05:56.848Z,89.19
2019-02-15T11:08:27.085Z,88.29
2019-02-15T11:10:57.429Z,87.83
2019-02-15T11:13:27.988Z,86.11
2019-02-15T11:15:58.955Z,85.63
2019-02-15T11:18:29.163Z,85.94
2019-02-15T11:21:00.089Z,84.33
2019-02-15T11:23:30.310Z,84.39
2019-02-15T11:26:00.572Z,83.72
2019-02-15T11:28:30.835Z,82.67
2019-02-15T11:31:01.017Z,82.46
2019-02-15T11:33:32.193Z,82.55
2019-02-15T11:36:02.383Z,82.00
2019-02-15T11:38:33.374Z,81.96
2019-02-15T11:41:10.955Z,80.42
2019-02-15T11:43:35.517Z,80.23
2019-02-15T11:46:05.714Z,80.20
2019-02-15T11:48:37.228Z,77.79
2019-02-15T11:51:07.413Z,78.19
2019-02-15T11:53:39.156Z,78.80
2019-02-15T11:56:11.686Z,76.17
2019-02-15T11:58:41.912Z,76.66
2019-02-15T12:01:12.068Z,77.13
2019-02-15T12:03:42.376Z,77.09
2019-02-15T12:06:14.052Z,76.49
2019-02-15T12:08:45.004Z,76.33
2019-02-15T12:11:15.179Z,74.31
2019-02-15T12:13:45.385Z,74.14
2019-02-15T12:16:15.536Z,74.70
2019-02-15T12:18:45.742Z,75.17
2019-02-15T12:21:15.964Z,74.23
2019-02-15T12:23:47.721Z,73.51
2019-02-15T12:26:17.925Z,73.57
2019-02-15T12:28:48.184Z,73.30
2019-02-15T12:31:18.388Z,72.76
2019-02-15T12:33:49.363Z,72.53
2019-02-15T12:36:19.542Z,72.62
2019-02-15T12:38:49.742Z,72.22
2019-02-15T12:41:19.961Z,72.33
2019-02-15T12:43:50.959Z,71.72
2019-02-15T12:46:21.905Z,72.21
2019-02-15T12:48:52.120Z,70.97
2019-02-15T12:51:23.965Z,71.60
2019-02-15T12:53:54.993Z,71.59
2019-02-15T12:56:26.707Z,71.29
2019-02-15T12:58:58.814Z,69.79
2019-02-15T13:01:29.739Z,70.41
2019-02-15T13:03:59.930Z,70.78
2019-02-15T13:06:30.160Z,70.64
2019-02-15T13:09:00.800Z,69.14
2019-02-15T13:11:30.982Z,69.38
2019-02-15T13:14:01.182Z,68.68
2019-02-15T13:16:31.292Z,69.27
2019-02-15T13:19:03.150Z,68.45
2019-02-15T13:21:33.347Z,68.16
2019-02-15T13:24:04.001Z,68.64
2019-02-15T13:26:34.637Z,67.37
2019-02-15T13:29:05.300Z,68.42
2019-02-15T13:31:35.512Z,68.39
2019-02-15T13:34:05.731Z,68.70
2019-02-15T13:36:36.654Z,68.40
2019-02-15T13:39:07.389Z,67.97
2019-02-15T13:41:38.924Z,67.93
2019-02-15T13:44:10.905Z,66.96
2019-02-15T13:46:41.234Z,66.51
2019-02-15T13:49:12.948Z,65.55
2019-02-15T13:51:43.433Z,65.32
2019-02-15T13:54:13.607Z,65.71
2019-02-15T13:56:43.784Z,65.41
2019-02-15T13:59:13.997Z,66.15
2019-02-15T14:01:44.197Z,66.01
2019-02-15T14:04:14.465Z,66.98
2019-02-15T14:06:48.653Z,66.72
2019-02-15T14:09:18.914Z,64.11
2019-02-15T14:11:49.088Z,63.97
2019-02-15T14:14:19.262Z,64.23
2019-02-15T14:16:50.332Z,64.12
2019-02-15T14:19:21.325Z,62.33
2019-02-15T14:21:51.627Z,60.77
2019-02-15T14:24:21.920Z,62.07
2019-02-15T14:26:53.635Z,61.98
2019-02-15T14:29:23.890Z,60.17
2019-02-15T14:31:54.182Z,59.33
2019-02-15T14:34:25.094Z,61.05
2019-02-15T14:36:55.341Z,60.65
2019-02-15T14:39:25.667Z,60.29
2019-02-15T14:41:55.877Z,60.15
2019-02-15T14:44:27.625Z,60.48
2019-02-15T14:46:57.862Z,60.21
2019-02-15T14:49:28.127Z,59.47
2019-02-15T14:51:58.460Z,60.01
2019-02-15T14:54:29.652Z,60.69
2019-02-15T14:57:00.101Z,59.90
2019-02-15T14:59:30.279Z,60.32
2019-02-15T15:02:01.359Z,58.19
2019-02-15T15:04:31.607Z,56.88
2019-02-15T15:07:02.298Z,56.87
2019-02-15T15:09:34.193Z,56.28
2019-02-15T15:12:04.505Z,54.09
2019-02-15T15:14:34.722Z,54.12
2019-02-15T15:17:04.992Z,54.28
2019-02-15T15:19:35.322Z,51.99
2019-02-15T15:22:06.069Z,52.33
2019-02-15T15:24:36.257Z,52.77
2019-02-15T15:27:07.221Z,51.70
2019-02-15T15:29:37.370Z,51.66
2019-02-15T15:32:07.587Z,51.48
2019-02-15T15:34:40.768Z,51.22
2019-02-15T15:37:16.619Z,51.62
2019-02-15T15:39:43.809Z,52.32
2019-02-15T15:42:15.918Z,51.10
2019-02-15T15:44:46.096Z,52.57
2019-02-15T15:47:17.075Z,53.61
2019-02-15T15:49:47.317Z,53.93
2019-02-15T15:52:19.399Z,55.29
2019-02-15T15:54:50.996Z,56.54
2019-02-15T15:57:22.144Z,56.16
2019-02-15T15:59:52.355Z,56.13
2019-02-15T16:02:24.252Z,57.88
2019-02-15T16:04:54.424Z,57.94
2019-02-15T16:07:24.717Z,58.26
2019-02-15T16:09:55.727Z,59.16
2019-02-15T16:12:25.893Z,60.42
2019-02-15T16:14:56.038Z,60.84
2019-02-15T16:17:29.577Z,61.18
2019-02-15T16:19:59.698Z,61.94
2019-02-15T16:22:29.920Z,62.78
2019-02-15T16:25:00.858Z,63.36
2019-02-15T16:27:31.119Z,64.06
2019-02-15T16:30:01.315Z,64.82
2019-02-15T16:32:36.212Z,64.99
2019-02-15T16:35:06.805Z,65.78
2019-02-15T16:37:36.970Z,66.05
2019-02-15T16:40:08.525Z,66.58
2019-02-15T16:42:39.638Z,67.00
2019-02-15T16:45:11.411Z,67.33
2019-02-15T16:47:42.433Z,67.53
2019-02-15T16:50:14.034Z,68.05
2019-02-15T16:52:44.210Z,68.39
2019-02-15T16:55:14.496Z,68.65
2019-02-15T16:57:45.477Z,69.03
2019-02-15T17:00:16.302Z,69.53
2019-02-15T17:02:46.464Z,69.90
2019-02-15T17:05:17.379Z,70.33
2019-02-15T17:07:47.769Z,70.73
2019-02-15T17:10:19.616Z,71.10
2019-02-15T17:12:51.646Z,71.51
2019-02-15T17:15:21.950Z,71.79
2019-02-15T17:17:52.995Z,72.13
2019-02-15T17:20:23.185Z,72.52
2019-02-15T17:22:54.445Z,73.05
2019-02-15T17:25:25.401Z,73.47
2019-02-15T17:27:55.685Z,73.57
2019-02-15T17:30:25.892Z,73.68
2019-02-15T17:32:56.098Z,74.07
2019-02-15T17:35:26.198Z,74.46
2019-02-15T17:37:56.405Z,74.72
2019-02-15T17:40:26.566Z,75.31
2019-02-15T17:42:58.439Z,76.00
2019-02-15T17:45:28.679Z,76.60
2019-02-15T17:47:59.652Z,77.54
2019-02-15T17:50:29.781Z,78.43
2019-02-15T17:53:00.839Z,78.96
2019-02-15T17:55:31.937Z,79.42
2019-02-15T17:58:02.873Z,80.19
2019-02-15T18:00:33.859Z,80.69
2019-02-15T18:03:04.022Z,81.31
2019-02-15T18:05:34.323Z,81.84
2019-02-15T18:08:04.586Z,82.30
2019-02-15T18:10:35.515Z,82.82
2019-02-15T18:13:05.730Z,83.29
2019-02-15T18:15:35.941Z,83.63
2019-02-15T18:18:06.154Z,84.07
2019-02-15T18:20:37.153Z,84.73
2019-02-15T18:23:09.107Z,84.73
2019-02-15T18:25:41.458Z,85.75
2019-02-15T18:28:11.668Z,86.14
2019-02-15T18:30:43.426Z,86.86
2019-02-15T18:33:13.754Z,87.27
2019-02-15T18:35:45.229Z,87.56
2019-02-15T18:38:15.458Z,88.03
2019-02-15T18:40:46.464Z,88.78
2019-02-15T18:43:16.655Z,89.34
2019-02-15T18:45:46.785Z,89.88
2019-02-15T18:48:18.525Z,90.90
2019-02-15T18:50:49.539Z,90.90
2019-02-15T18:53:19.747Z,92.71
2019-02-15T18:55:49.894Z,94.54
2019-02-15T18:58:20.809Z,95.00
2019-02-15T19:00:51.066Z,95.86
2019-02-15T19:03:22.044Z,96.36
2019-02-15T19:05:53.175Z,98.59
2019-02-15T19:08:24.203Z,98.81
2019-02-15T19:10:55.263Z,98.85
2019-02-15T19:13:25.443Z,98.89
2019-02-15T19:15:55.634Z,98.81
2019-02-15T19:18:25.823Z,98.68
2019-02-15T19:20:56.029Z,98.81
2019-02-15T19:23:26.246Z,99.15
2019-02-15T19:25:58.135Z,99.72
2019-02-15T19:28:28.370Z,100.00
2019-02-15T19:31:00.136Z,100.00
2019-02-15T19:33:30.414Z,100.00
2019-02-15T19:36:00.778Z,100.00
2019-02-15T19:38:31.849Z,100.00
2019-02-15T19:41:02.867Z,100.00
2019-02-15T19:43:33.141Z,100.00
2019-02-15T19:46:04.035Z,100.00
2019-02-15T19:48:34.342Z,100.00
2019-02-15T19:51:04.841Z,100.00
2019-02-15T19:53:35.297Z,100.00
2019-02-15T19:56:06.529Z,100.00
2019-02-15T19:58:36.916Z,100.00
2019-02-15T20:01:07.325Z,100.00
2019-02-15T20:03:39.953Z,100.00
2019-02-15T20:06:14.287Z,100.00
2019-02-15T20:08:45.897Z,100.00
2019-02-15T20:11:16.264Z,100.00
2019-02-15T20:13:47.416Z,100.00
2019-02-15T20:16:18.895Z,100.00
2019-02-15T20:18:50.880Z,100.00
2019-02-15T20:21:21.274Z,100.00
2019-02-15T20:23:51.669Z,100.00
2019-02-15T20:26:21.978Z,100.00
2019-02-15T20:28:53.990Z,100.00
2019-02-15T20:31:24.420Z,100.00
2019-02-15T20:33:55.956Z,100.00
2019-02-15T20:36:26.341Z,100.00
2019-02-15T20:38:56.712Z,100.00
2019-02-15T20:41:27.188Z,100.00
2019-02-15T20:43:57.654Z,100.00
2019-02-15T20:46:28.086Z,100.00
2019-02-15T20:49:04.644Z,100.00
2019-02-15T20:51:30.733Z,100.00
2019-02-15T20:54:01.916Z,100.00
2019-02-15T20:56:33.183Z,100.00
2019-02-15T20:59:03.674Z,100.00
2019-02-15T21:01:34.932Z,100.00
2019-02-15T21:04:05.293Z,100.00
2019-02-15T21:06:35.673Z,100.00
2019-02-15T21:09:07.616Z,100.00
2019-02-15T21:11:38.161Z,100.00
2019-02-15T21:14:08.457Z,100.00
2019-02-15T21:16:40.080Z,100.00
2019-02-15T21:19:10.407Z,100.00
2019-02-15T21:21:40.633Z,100.00
2019-02-15T21:24:10.939Z,100.00
2019-02-15T21:26:41.125Z,100.00
2019-02-15T21:29:12.380Z,100.00
2019-02-15T21:31:42.605Z,100.00
2019-02-15T21:34:13.845Z,100.00
2019-02-15T21:36:44.070Z,100.00
2019-02-15T21:39:15.066Z,100.00
2019-02-15T21:41:45.382Z,100.00
2019-02-15T21:44:15.660Z,100.00
2019-02-15T21:46:45.931Z,100.00
2019-02-15T21:49:17.038Z,100.00
2019-02-15T21:51:47.222Z,100.00
2019-02-15T21:54:17.436Z,100.00
2019-02-15T21:56:47.694Z,100.00
2019-02-15T21:59:18.286Z,100.00
2019-02-15T22:01:49.969Z,100.00
2019-02-15T22:04:21.741Z,100.00
2019-02-15T22:06:52.884Z,100.00
2019-02-15T22:09:24.603Z,100.00
2019-02-15T22:11:54.853Z,100.00
2019-02-15T22:14:25.058Z,100.00
2019-02-15T22:16:55.238Z,100.00
2019-02-15T22:19:25.854Z,100.00
2019-02-15T22:21:56.488Z,100.00
2019-02-15T22:24:27.663Z,100.00
2019-02-15T22:26:58.677Z,100.00
2019-02-15T22:29:28.851Z,100.00
2019-02-15T22:31:59.095Z,100.00
2019-02-15T22:34:29.289Z,100.00
2019-02-15T22:37:00.178Z,100.00
2019-02-15T22:39:30.395Z,100.00
2019-02-15T22:42:00.645Z,100.00
2019-02-15T22:44:30.824Z,100.00
2019-02-15T22:47:02.116Z,100.00
2019-02-15T22:49:43.150Z,100.00
2019-02-15T22:52:05.092Z,100.00
2019-02-15T22:54:35.304Z,100.00
2019-02-15T22:57:05.617Z,100.00
2019-02-15T22:59:35.780Z,100.00
2019-02-15T23:02:06.847Z,100.00
2019-02-15T23:04:36.993Z,100.00
2019-02-15T23:07:08.886Z,100.00
2019-02-15T23:09:39.057Z,100.00
2019-02-15T23:12:09.200Z,100.00
2019-02-15T23:14:39.413Z,100.00
2019-02-15T23:17:10.400Z,100.00
2019-02-15T23:19:40.591Z,100.00
2019-02-15T23:22:11.534Z,100.00
2019-02-15T23:24:42.578Z,100.00
2019-02-15T23:27:13.233Z,100.00
2019-02-15T23:29:43.454Z,100.00
2019-02-15T23:32:13.620Z,100.00
2019-02-15T23:34:43.818Z,100.00
2019-02-15T23:37:14.783Z,100.00
2019-02-15T23:39:45.003Z,100.00
2019-02-15T23:42:15.944Z,100.00
2019-02-15T23:44:46.247Z,100.00
2019-02-15T23:47:17.286Z,100.00
2019-02-15T23:49:47.435Z,100.00
2019-02-15T23:52:18.371Z,100.00
2019-02-15T23:54:49.473Z,100.00
2019-02-15T23:57:19.613Z,100.00
2019-02-15T23:59:49.883Z,100.00
